sensor_id;sensor_type;location;lat;lon;timestamp;P1;durP1;ratioP1;P2;durP2;ratioP2
32347;SDS011;18821;44.800;10.326;2023-08-06T00:01:57;3.88;;;0.77;;
32347;SDS011;18821;44.800;10.326;2023-08-06T00:04:23;2.30;;;0.40;;
32347;SDS011;18821;44.800;10.326;2023-08-06T00:06:49;1.25;;;0.40;;
32347;SDS011;18821;44.800;10.326;2023-08-06T00:09:14;1.27;;;0.80;;
32347;SDS011;18821;44.800;10.326;2023-08-06T00:11:41;3.08;;;0.82;;
32347;SDS011;18821;44.800;10.326;2023-08-06T00:14:09;1.48;;;0.70;;
32347;SDS011;18821;44.800;10.326;2023-08-06T00:16:35;3.85;;;0.60;;
32347;SDS011;18821;44.800;10.326;2023-08-06T00:19:01;1.13;;;0.90;;
32347;SDS011;18821;44.800;10.326;2023-08-06T00:21:27;1.45;;;0.65;;
32347;SDS011;18821;44.800;10.326;2023-08-06T00:23:53;3.90;;;0.82;;
32347;SDS011;18821;44.800;10.326;2023-08-06T00:26:19;0.80;;;0.70;;
32347;SDS011;18821;44.800;10.326;2023-08-06T00:28:45;1.40;;;0.73;;
32347;SDS011;18821;44.800;10.326;2023-08-06T00:31:11;0.98;;;0.50;;
32347;SDS011;18821;44.800;10.326;2023-08-06T00:33:37;1.52;;;0.73;;
32347;SDS011;18821;44.800;10.326;2023-08-06T00:36:03;2.85;;;0.68;;
32347;SDS011;18821;44.800;10.326;2023-08-06T00:38:30;0.68;;;0.68;;
32347;SDS011;18821;44.800;10.326;2023-08-06T00:40:56;3.40;;;0.93;;
32347;SDS011;18821;44.800;10.326;2023-08-06T00:43:22;1.00;;;0.70;;
32347;SDS011;18821;44.800;10.326;2023-08-06T00:45:48;2.13;;;0.80;;
32347;SDS011;18821;44.800;10.326;2023-08-06T00:48:14;2.50;;;0.95;;
32347;SDS011;18821;44.800;10.326;2023-08-06T00:50:41;1.77;;;0.70;;
32347;SDS011;18821;44.800;10.326;2023-08-06T00:53:07;2.65;;;0.70;;
32347;SDS011;18821;44.800;10.326;2023-08-06T00:55:33;2.75;;;0.90;;
32347;SDS011;18821;44.800;10.326;2023-08-06T00:57:59;1.67;;;0.57;;
32347;SDS011;18821;44.800;10.326;2023-08-06T01:00:26;1.92;;;0.73;;
32347;SDS011;18821;44.800;10.326;2023-08-06T01:02:52;3.80;;;1.10;;
32347;SDS011;18821;44.800;10.326;2023-08-06T01:05:19;3.47;;;0.80;;
32347;SDS011;18821;44.800;10.326;2023-08-06T01:16:05;5.25;;;1.13;;
32347;SDS011;18821;44.800;10.326;2023-08-06T01:18:32;1.40;;;0.77;;
32347;SDS011;18821;44.800;10.326;2023-08-06T01:20:58;1.80;;;0.90;;
32347;SDS011;18821;44.800;10.326;2023-08-06T01:23:24;2.42;;;0.93;;
32347;SDS011;18821;44.800;10.326;2023-08-06T01:28:53;1.90;;;0.90;;
32347;SDS011;18821;44.800;10.326;2023-08-06T01:31:32;1.10;;;0.75;;
32347;SDS011;18821;44.800;10.326;2023-08-06T01:34:06;1.30;;;0.77;;
32347;SDS011;18821;44.800;10.326;2023-08-06T01:36:36;1.95;;;0.85;;
32347;SDS011;18821;44.800;10.326;2023-08-06T01:39:02;3.92;;;0.80;;
32347;SDS011;18821;44.800;10.326;2023-08-06T01:41:30;3.08;;;0.80;;
32347;SDS011;18821;44.800;10.326;2023-08-06T01:43:56;1.33;;;1.00;;
32347;SDS011;18821;44.800;10.326;2023-08-06T01:46:22;1.98;;;0.80;;
32347;SDS011;18821;44.800;10.326;2023-08-06T01:48:50;2.47;;;0.80;;
32347;SDS011;18821;44.800;10.326;2023-08-06T01:51:16;2.83;;;1.17;;
32347;SDS011;18821;44.800;10.326;2023-08-06T01:53:43;4.00;;;0.80;;
32347;SDS011;18821;44.800;10.326;2023-08-06T01:56:09;2.92;;;0.98;;
32347;SDS011;18821;44.800;10.326;2023-08-06T01:58:35;4.53;;;0.80;;
32347;SDS011;18821;44.800;10.326;2023-08-06T02:01:01;6.63;;;1.40;;
32347;SDS011;18821;44.800;10.326;2023-08-06T02:03:27;1.90;;;0.70;;
32347;SDS011;18821;44.800;10.326;2023-08-06T02:05:54;4.13;;;0.98;;
32347;SDS011;18821;44.800;10.326;2023-08-06T02:08:20;1.55;;;0.82;;
32347;SDS011;18821;44.800;10.326;2023-08-06T02:10:46;3.42;;;1.08;;
32347;SDS011;18821;44.800;10.326;2023-08-06T02:13:12;2.67;;;0.95;;
32347;SDS011;18821;44.800;10.326;2023-08-06T02:15:44;5.53;;;1.35;;
32347;SDS011;18821;44.800;10.326;2023-08-06T02:18:13;1.80;;;1.05;;
32347;SDS011;18821;44.800;10.326;2023-08-06T02:20:40;6.07;;;1.23;;
32347;SDS011;18821;44.800;10.326;2023-08-06T02:23:06;2.05;;;1.00;;
32347;SDS011;18821;44.800;10.326;2023-08-06T02:25:32;2.63;;;1.20;;
32347;SDS011;18821;44.800;10.326;2023-08-06T02:27:59;3.03;;;1.10;;
32347;SDS011;18821;44.800;10.326;2023-08-06T02:30:25;3.47;;;1.38;;
32347;SDS011;18821;44.800;10.326;2023-08-06T02:32:51;3.58;;;0.98;;
32347;SDS011;18821;44.800;10.326;2023-08-06T02:35:17;3.58;;;1.10;;
32347;SDS011;18821;44.800;10.326;2023-08-06T02:37:45;3.67;;;1.23;;
32347;SDS011;18821;44.800;10.326;2023-08-06T02:40:11;7.70;;;1.30;;
32347;SDS011;18821;44.800;10.326;2023-08-06T02:42:37;3.55;;;1.30;;
32347;SDS011;18821;44.800;10.326;2023-08-06T02:45:03;6.40;;;1.30;;
32347;SDS011;18821;44.800;10.326;2023-08-06T02:47:29;1.23;;;1.10;;
32347;SDS011;18821;44.800;10.326;2023-08-06T02:49:57;2.42;;;1.10;;
32347;SDS011;18821;44.800;10.326;2023-08-06T02:52:23;3.28;;;1.30;;
32347;SDS011;18821;44.800;10.326;2023-08-06T02:54:49;2.85;;;1.55;;
32347;SDS011;18821;44.800;10.326;2023-08-06T02:57:15;2.33;;;1.20;;
32347;SDS011;18821;44.800;10.326;2023-08-06T02:59:41;2.70;;;1.27;;
32347;SDS011;18821;44.800;10.326;2023-08-06T03:02:26;3.33;;;1.80;;
32347;SDS011;18821;44.800;10.326;2023-08-06T03:05:03;4.68;;;1.45;;
32347;SDS011;18821;44.800;10.326;2023-08-06T03:07:35;3.35;;;1.70;;
32347;SDS011;18821;44.800;10.326;2023-08-06T03:10:09;3.33;;;2.05;;
32347;SDS011;18821;44.800;10.326;2023-08-06T03:12:35;2.20;;;1.48;;
32347;SDS011;18821;44.800;10.326;2023-08-06T03:15:03;2.85;;;1.55;;
32347;SDS011;18821;44.800;10.326;2023-08-06T03:17:29;2.38;;;1.80;;
32347;SDS011;18821;44.800;10.326;2023-08-06T03:19:56;1.73;;;1.60;;
32347;SDS011;18821;44.800;10.326;2023-08-06T03:22:22;8.63;;;1.83;;
32347;SDS011;18821;44.800;10.326;2023-08-06T03:24:52;1.70;;;1.52;;
32347;SDS011;18821;44.800;10.326;2023-08-06T03:27:20;6.68;;;2.13;;
32347;SDS011;18821;44.800;10.326;2023-08-06T03:29:50;2.30;;;1.40;;
32347;SDS011;18821;44.800;10.326;2023-08-06T03:32:19;3.53;;;1.63;;
32347;SDS011;18821;44.800;10.326;2023-08-06T03:34:45;2.67;;;1.80;;
32347;SDS011;18821;44.800;10.326;2023-08-06T03:37:12;2.70;;;1.98;;
32347;SDS011;18821;44.800;10.326;2023-08-06T03:39:38;3.42;;;2.00;;
32347;SDS011;18821;44.800;10.326;2023-08-06T03:42:04;2.58;;;2.10;;
32347;SDS011;18821;44.800;10.326;2023-08-06T03:44:30;3.05;;;2.30;;
32347;SDS011;18821;44.800;10.326;2023-08-06T03:46:56;3.08;;;2.50;;
32347;SDS011;18821;44.800;10.326;2023-08-06T03:49:23;2.20;;;2.00;;
32347;SDS011;18821;44.800;10.326;2023-08-06T03:51:49;2.83;;;2.30;;
32347;SDS011;18821;44.800;10.326;2023-08-06T03:54:15;2.90;;;1.80;;
32347;SDS011;18821;44.800;10.326;2023-08-06T03:56:41;3.00;;;2.30;;
32347;SDS011;18821;44.800;10.326;2023-08-06T03:59:08;2.97;;;2.22;;
32347;SDS011;18821;44.800;10.326;2023-08-06T04:01:34;6.82;;;2.28;;
32347;SDS011;18821;44.800;10.326;2023-08-06T04:04:00;4.00;;;1.85;;
32347;SDS011;18821;44.800;10.326;2023-08-06T04:06:27;3.10;;;1.90;;
32347;SDS011;18821;44.800;10.326;2023-08-06T04:08:53;4.55;;;2.35;;
32347;SDS011;18821;44.800;10.326;2023-08-06T04:11:18;3.38;;;1.92;;
32347;SDS011;18821;44.800;10.326;2023-08-06T04:13:45;3.40;;;1.92;;
32347;SDS011;18821;44.800;10.326;2023-08-06T04:16:11;3.10;;;2.25;;
32347;SDS011;18821;44.800;10.326;2023-08-06T04:18:38;3.58;;;2.10;;
32347;SDS011;18821;44.800;10.326;2023-08-06T04:21:04;3.15;;;1.85;;
32347;SDS011;18821;44.800;10.326;2023-08-06T04:23:30;2.58;;;1.58;;
32347;SDS011;18821;44.800;10.326;2023-08-06T04:26:04;6.90;;;2.00;;
32347;SDS011;18821;44.800;10.326;2023-08-06T04:28:33;4.07;;;1.88;;
32347;SDS011;18821;44.800;10.326;2023-08-06T04:30:59;5.20;;;1.55;;
32347;SDS011;18821;44.800;10.326;2023-08-06T04:33:26;3.40;;;2.08;;
32347;SDS011;18821;44.800;10.326;2023-08-06T04:35:56;3.20;;;1.80;;
32347;SDS011;18821;44.800;10.326;2023-08-06T04:38:23;1.90;;;1.50;;
32347;SDS011;18821;44.800;10.326;2023-08-06T04:40:53;3.63;;;1.75;;
32347;SDS011;18821;44.800;10.326;2023-08-06T04:43:21;2.33;;;1.58;;
32347;SDS011;18821;44.800;10.326;2023-08-06T04:45:54;3.15;;;1.67;;
32347;SDS011;18821;44.800;10.326;2023-08-06T04:48:21;7.22;;;1.33;;
32347;SDS011;18821;44.800;10.326;2023-08-06T04:50:48;2.17;;;1.45;;
32347;SDS011;18821;44.800;10.326;2023-08-06T04:53:15;1.38;;;1.08;;
32347;SDS011;18821;44.800;10.326;2023-08-06T04:55:41;2.05;;;0.77;;
32347;SDS011;18821;44.800;10.326;2023-08-06T04:58:11;4.20;;;0.93;;
32347;SDS011;18821;44.800;10.326;2023-08-06T05:00:38;1.40;;;0.60;;
32347;SDS011;18821;44.800;10.326;2023-08-06T05:03:06;4.22;;;0.80;;
32347;SDS011;18821;44.800;10.326;2023-08-06T05:05:32;1.88;;;0.70;;
32347;SDS011;18821;44.800;10.326;2023-08-06T05:07:58;2.35;;;0.50;;
32347;SDS011;18821;44.800;10.326;2023-08-06T05:10:25;3.65;;;0.65;;
32347;SDS011;18821;44.800;10.326;2023-08-06T05:12:51;2.35;;;0.70;;
32347;SDS011;18821;44.800;10.326;2023-08-06T05:15:18;1.02;;;0.57;;
32347;SDS011;18821;44.800;10.326;2023-08-06T05:17:44;5.13;;;0.55;;
32347;SDS011;18821;44.800;10.326;2023-08-06T05:20:10;1.15;;;0.70;;
32347;SDS011;18821;44.800;10.326;2023-08-06T05:22:36;0.98;;;0.50;;
32347;SDS011;18821;44.800;10.326;2023-08-06T05:25:03;1.55;;;0.40;;
32347;SDS011;18821;44.800;10.326;2023-08-06T05:27:29;1.38;;;0.43;;
32347;SDS011;18821;44.800;10.326;2023-08-06T05:29:55;1.00;;;0.40;;
32347;SDS011;18821;44.800;10.326;2023-08-06T05:32:22;1.95;;;0.60;;
32347;SDS011;18821;44.800;10.326;2023-08-06T05:34:48;2.08;;;0.57;;
32347;SDS011;18821;44.800;10.326;2023-08-06T05:37:14;1.95;;;0.60;;
32347;SDS011;18821;44.800;10.326;2023-08-06T05:39:40;3.20;;;1.00;;
32347;SDS011;18821;44.800;10.326;2023-08-06T05:42:06;0.77;;;0.60;;
32347;SDS011;18821;44.800;10.326;2023-08-06T05:44:32;1.90;;;0.60;;
32347;SDS011;18821;44.800;10.326;2023-08-06T05:46:58;4.05;;;0.70;;
32347;SDS011;18821;44.800;10.326;2023-08-06T05:49:24;1.95;;;0.70;;
32347;SDS011;18821;44.800;10.326;2023-08-06T05:51:50;1.73;;;0.50;;
32347;SDS011;18821;44.800;10.326;2023-08-06T05:54:18;1.95;;;0.60;;
32347;SDS011;18821;44.800;10.326;2023-08-06T05:56:44;0.77;;;0.50;;
32347;SDS011;18821;44.800;10.326;2023-08-06T05:59:11;2.83;;;0.60;;
32347;SDS011;18821;44.800;10.326;2023-08-06T06:01:36;1.80;;;0.47;;
32347;SDS011;18821;44.800;10.326;2023-08-06T06:04:02;0.90;;;0.50;;
32347;SDS011;18821;44.800;10.326;2023-08-06T06:06:29;1.98;;;0.70;;
32347;SDS011;18821;44.800;10.326;2023-08-06T06:08:54;1.52;;;0.63;;
32347;SDS011;18821;44.800;10.326;2023-08-06T06:11:21;1.65;;;0.73;;
32347;SDS011;18821;44.800;10.326;2023-08-06T06:13:50;3.13;;;0.60;;
32347;SDS011;18821;44.800;10.326;2023-08-06T06:16:17;4.25;;;0.90;;
32347;SDS011;18821;44.800;10.326;2023-08-06T06:18:43;2.55;;;0.70;;
32347;SDS011;18821;44.800;10.326;2023-08-06T06:21:09;2.78;;;0.90;;
32347;SDS011;18821;44.800;10.326;2023-08-06T06:23:36;9.18;;;1.75;;
32347;SDS011;18821;44.800;10.326;2023-08-06T06:26:02;2.25;;;0.80;;
32347;SDS011;18821;44.800;10.326;2023-08-06T06:28:28;0.55;;;0.40;;
32347;SDS011;18821;44.800;10.326;2023-08-06T06:30:59;0.60;;;0.40;;
32347;SDS011;18821;44.800;10.326;2023-08-06T06:33:26;2.97;;;0.77;;
32347;SDS011;18821;44.800;10.326;2023-08-06T06:35:52;2.42;;;0.90;;
32347;SDS011;18821;44.800;10.326;2023-08-06T06:38:18;4.20;;;0.70;;
32347;SDS011;18821;44.800;10.326;2023-08-06T06:40:53;0.90;;;0.60;;
32347;SDS011;18821;44.800;10.326;2023-08-06T06:43:19;3.33;;;0.95;;
32347;SDS011;18821;44.800;10.326;2023-08-06T06:45:45;3.88;;;0.93;;
32347;SDS011;18821;44.800;10.326;2023-08-06T06:48:11;2.03;;;0.63;;
32347;SDS011;18821;44.800;10.326;2023-08-06T06:50:37;1.50;;;0.85;;
32347;SDS011;18821;44.800;10.326;2023-08-06T06:53:04;2.00;;;0.82;;
32347;SDS011;18821;44.800;10.326;2023-08-06T06:55:30;1.33;;;1.00;;
32347;SDS011;18821;44.800;10.326;2023-08-06T06:57:56;1.17;;;0.63;;
32347;SDS011;18821;44.800;10.326;2023-08-06T07:00:22;3.67;;;1.17;;
32347;SDS011;18821;44.800;10.326;2023-08-06T07:02:48;2.30;;;0.73;;
32347;SDS011;18821;44.800;10.326;2023-08-06T07:05:14;2.22;;;0.75;;
32347;SDS011;18821;44.800;10.326;2023-08-06T07:07:40;1.80;;;1.13;;
32347;SDS011;18821;44.800;10.326;2023-08-06T07:10:06;2.65;;;0.70;;
32347;SDS011;18821;44.800;10.326;2023-08-06T07:12:32;2.25;;;0.60;;
32347;SDS011;18821;44.800;10.326;2023-08-06T07:14:59;2.28;;;0.77;;
32347;SDS011;18821;44.800;10.326;2023-08-06T07:17:25;0.80;;;0.47;;
32347;SDS011;18821;44.800;10.326;2023-08-06T07:19:50;3.55;;;0.70;;
32347;SDS011;18821;44.800;10.326;2023-08-06T07:22:17;1.05;;;0.57;;
32347;SDS011;18821;44.800;10.326;2023-08-06T07:24:42;3.78;;;1.20;;
32347;SDS011;18821;44.800;10.326;2023-08-06T07:27:08;1.58;;;0.63;;
32347;SDS011;18821;44.800;10.326;2023-08-06T07:29:34;2.10;;;1.05;;
32347;SDS011;18821;44.800;10.326;2023-08-06T07:32:00;3.55;;;0.90;;
32347;SDS011;18821;44.800;10.326;2023-08-06T07:34:27;4.03;;;0.70;;
32347;SDS011;18821;44.800;10.326;2023-08-06T07:36:53;0.68;;;0.50;;
32347;SDS011;18821;44.800;10.326;2023-08-06T07:39:19;1.52;;;0.70;;
32347;SDS011;18821;44.800;10.326;2023-08-06T07:41:45;1.85;;;0.80;;
32347;SDS011;18821;44.800;10.326;2023-08-06T07:44:11;1.08;;;0.50;;
32347;SDS011;18821;44.800;10.326;2023-08-06T07:46:37;0.95;;;0.50;;
32347;SDS011;18821;44.800;10.326;2023-08-06T07:49:04;1.20;;;0.52;;
32347;SDS011;18821;44.800;10.326;2023-08-06T07:51:30;0.82;;;0.43;;
32347;SDS011;18821;44.800;10.326;2023-08-06T07:53:56;1.88;;;0.52;;
32347;SDS011;18821;44.800;10.326;2023-08-06T07:56:22;1.38;;;0.40;;
32347;SDS011;18821;44.800;10.326;2023-08-06T07:58:49;0.98;;;0.40;;
32347;SDS011;18821;44.800;10.326;2023-08-06T08:01:15;1.38;;;0.30;;
32347;SDS011;18821;44.800;10.326;2023-08-06T08:03:40;1.73;;;0.50;;
32347;SDS011;18821;44.800;10.326;2023-08-06T08:06:06;1.55;;;0.70;;
32347;SDS011;18821;44.800;10.326;2023-08-06T08:08:33;2.50;;;0.70;;
32347;SDS011;18821;44.800;10.326;2023-08-06T08:11:03;6.22;;;0.80;;
32347;SDS011;18821;44.800;10.326;2023-08-06T08:13:28;0.70;;;0.45;;
32347;SDS011;18821;44.800;10.326;2023-08-06T08:15:57;0.93;;;0.52;;
32347;SDS011;18821;44.800;10.326;2023-08-06T08:18:24;4.22;;;0.77;;
32347;SDS011;18821;44.800;10.326;2023-08-06T08:20:50;1.65;;;0.70;;
32347;SDS011;18821;44.800;10.326;2023-08-06T08:23:16;4.72;;;0.90;;
32347;SDS011;18821;44.800;10.326;2023-08-06T08:25:42;2.80;;;0.82;;
32347;SDS011;18821;44.800;10.326;2023-08-06T08:28:08;2.25;;;0.55;;
32347;SDS011;18821;44.800;10.326;2023-08-06T08:30:34;1.60;;;0.80;;
32347;SDS011;18821;44.800;10.326;2023-08-06T08:33:00;3.47;;;0.93;;
32347;SDS011;18821;44.800;10.326;2023-08-06T08:35:26;2.45;;;0.77;;
32347;SDS011;18821;44.800;10.326;2023-08-06T08:37:52;3.85;;;0.82;;
32347;SDS011;18821;44.800;10.326;2023-08-06T08:40:19;2.10;;;0.90;;
32347;SDS011;18821;44.800;10.326;2023-08-06T08:42:49;1.77;;;0.80;;
32347;SDS011;18821;44.800;10.326;2023-08-06T08:45:16;5.20;;;0.88;;
32347;SDS011;18821;44.800;10.326;2023-08-06T08:47:45;2.15;;;0.60;;
32347;SDS011;18821;44.800;10.326;2023-08-06T08:50:12;4.50;;;1.08;;
32347;SDS011;18821;44.800;10.326;2023-08-06T08:52:39;1.25;;;0.60;;
32347;SDS011;18821;44.800;10.326;2023-08-06T08:55:06;2.28;;;0.73;;
32347;SDS011;18821;44.800;10.326;2023-08-06T08:57:33;1.55;;;0.50;;
32347;SDS011;18821;44.800;10.326;2023-08-06T08:59:59;1.83;;;0.63;;
32347;SDS011;18821;44.800;10.326;2023-08-06T09:02:27;1.27;;;0.60;;
32347;SDS011;18821;44.800;10.326;2023-08-06T09:04:57;1.70;;;0.60;;
32347;SDS011;18821;44.800;10.326;2023-08-06T09:07:32;3.35;;;0.98;;
32347;SDS011;18821;44.800;10.326;2023-08-06T09:10:03;1.67;;;0.93;;
32347;SDS011;18821;44.800;10.326;2023-08-06T09:12:31;0.85;;;0.55;;
32347;SDS011;18821;44.800;10.326;2023-08-06T09:14:57;4.30;;;1.05;;
32347;SDS011;18821;44.800;10.326;2023-08-06T09:17:24;1.45;;;0.63;;
32347;SDS011;18821;44.800;10.326;2023-08-06T09:19:50;1.80;;;1.02;;
32347;SDS011;18821;44.800;10.326;2023-08-06T09:22:16;6.30;;;0.82;;
32347;SDS011;18821;44.800;10.326;2023-08-06T09:24:42;2.15;;;0.60;;
32347;SDS011;18821;44.800;10.326;2023-08-06T09:27:12;3.90;;;0.60;;
32347;SDS011;18821;44.800;10.326;2023-08-06T09:29:42;1.63;;;0.73;;
32347;SDS011;18821;44.800;10.326;2023-08-06T09:32:10;1.45;;;0.57;;
32347;SDS011;18821;44.800;10.326;2023-08-06T09:34:46;1.90;;;0.60;;
32347;SDS011;18821;44.800;10.326;2023-08-06T09:37:12;2.47;;;0.50;;
32347;SDS011;18821;44.800;10.326;2023-08-06T09:39:39;1.20;;;0.55;;
32347;SDS011;18821;44.800;10.326;2023-08-06T09:42:06;2.67;;;0.63;;
32347;SDS011;18821;44.800;10.326;2023-08-06T09:44:33;2.40;;;0.45;;
32347;SDS011;18821;44.800;10.326;2023-08-06T09:47:03;1.52;;;0.68;;
32347;SDS011;18821;44.800;10.326;2023-08-06T09:51:58;1.30;;;0.63;;
32347;SDS011;18821;44.800;10.326;2023-08-06T09:54:25;0.70;;;0.63;;
32347;SDS011;18821;44.800;10.326;2023-08-06T09:56:52;2.30;;;0.85;;
32347;SDS011;18821;44.800;10.326;2023-08-06T09:59:19;1.75;;;0.80;;
32347;SDS011;18821;44.800;10.326;2023-08-06T10:01:45;1.48;;;0.80;;
32347;SDS011;18821;44.800;10.326;2023-08-06T10:04:12;0.90;;;0.70;;
32347;SDS011;18821;44.800;10.326;2023-08-06T10:06:41;1.63;;;0.90;;
32347;SDS011;18821;44.800;10.326;2023-08-06T10:09:08;0.70;;;0.60;;
32347;SDS011;18821;44.800;10.326;2023-08-06T10:11:36;1.50;;;0.80;;
32347;SDS011;18821;44.800;10.326;2023-08-06T10:16:46;1.48;;;0.60;;
32347;SDS011;18821;44.800;10.326;2023-08-06T10:19:13;0.65;;;0.45;;
32347;SDS011;18821;44.800;10.326;2023-08-06T10:21:40;0.85;;;0.40;;
32347;SDS011;18821;44.800;10.326;2023-08-06T10:24:07;1.02;;;0.60;;
32347;SDS011;18821;44.800;10.326;2023-08-06T10:26:36;2.10;;;1.23;;
32347;SDS011;18821;44.800;10.326;2023-08-06T10:32:03;1.08;;;0.70;;
32347;SDS011;18821;44.800;10.326;2023-08-06T10:37:23;1.23;;;0.45;;
32347;SDS011;18821;44.800;10.326;2023-08-06T10:40:00;1.10;;;0.80;;
32347;SDS011;18821;44.800;10.326;2023-08-06T10:42:29;0.82;;;0.47;;
32347;SDS011;18821;44.800;10.326;2023-08-06T10:45:14;1.33;;;0.70;;
32347;SDS011;18821;44.800;10.326;2023-08-06T10:47:42;0.70;;;0.60;;
32347;SDS011;18821;44.800;10.326;2023-08-06T10:50:10;2.35;;;1.05;;
32347;SDS011;18821;44.800;10.326;2023-08-06T10:52:44;4.00;;;1.10;;
32347;SDS011;18821;44.800;10.326;2023-08-06T10:55:11;1.08;;;0.63;;
32347;SDS011;18821;44.800;10.326;2023-08-06T10:57:38;1.00;;;0.60;;
32347;SDS011;18821;44.800;10.326;2023-08-06T11:00:05;4.00;;;0.77;;
32347;SDS011;18821;44.800;10.326;2023-08-06T11:02:35;0.47;;;0.40;;
32347;SDS011;18821;44.800;10.326;2023-08-06T11:05:08;1.25;;;0.60;;
32347;SDS011;18821;44.800;10.326;2023-08-06T11:07:35;1.50;;;0.68;;
32347;SDS011;18821;44.800;10.326;2023-08-06T11:10:11;1.48;;;0.80;;
32347;SDS011;18821;44.800;10.326;2023-08-06T11:12:38;0.85;;;0.63;;
32347;SDS011;18821;44.800;10.326;2023-08-06T11:15:05;1.05;;;0.70;;
32347;SDS011;18821;44.800;10.326;2023-08-06T11:17:32;4.72;;;0.95;;
32347;SDS011;18821;44.800;10.326;2023-08-06T11:19:59;1.98;;;0.57;;
32347;SDS011;18821;44.800;10.326;2023-08-06T11:22:31;1.48;;;0.60;;
32347;SDS011;18821;44.800;10.326;2023-08-06T11:24:57;8.40;;;0.73;;
32347;SDS011;18821;44.800;10.326;2023-08-06T11:27:26;1.48;;;0.70;;
32347;SDS011;18821;44.800;10.326;2023-08-06T11:29:53;1.05;;;0.80;;
32347;SDS011;18821;44.800;10.326;2023-08-06T11:32:19;2.88;;;0.70;;
32347;SDS011;18821;44.800;10.326;2023-08-06T11:34:45;0.88;;;0.40;;
32347;SDS011;18821;44.800;10.326;2023-08-06T11:37:11;2.65;;;0.60;;
32347;SDS011;18821;44.800;10.326;2023-08-06T11:39:38;4.07;;;0.98;;
32347;SDS011;18821;44.800;10.326;2023-08-06T11:42:09;1.67;;;1.00;;
32347;SDS011;18821;44.800;10.326;2023-08-06T11:44:37;2.33;;;0.60;;
32347;SDS011;18821;44.800;10.326;2023-08-06T11:47:03;1.70;;;0.90;;
32347;SDS011;18821;44.800;10.326;2023-08-06T11:49:47;1.15;;;0.60;;
32347;SDS011;18821;44.800;10.326;2023-08-06T11:52:14;0.55;;;0.40;;
32347;SDS011;18821;44.800;10.326;2023-08-06T11:57:33;0.80;;;0.57;;
32347;SDS011;18821;44.800;10.326;2023-08-06T12:00:06;0.90;;;0.68;;
32347;SDS011;18821;44.800;10.326;2023-08-06T12:02:44;1.67;;;0.77;;
32347;SDS011;18821;44.800;10.326;2023-08-06T12:05:11;1.00;;;0.80;;
32347;SDS011;18821;44.800;10.326;2023-08-06T12:07:44;4.03;;;0.98;;
32347;SDS011;18821;44.800;10.326;2023-08-06T12:10:12;1.42;;;0.73;;
32347;SDS011;18821;44.800;10.326;2023-08-06T12:12:38;2.65;;;1.10;;
32347;SDS011;18821;44.800;10.326;2023-08-06T12:15:05;1.08;;;0.80;;
32347;SDS011;18821;44.800;10.326;2023-08-06T12:17:33;0.77;;;0.60;;
32347;SDS011;18821;44.800;10.326;2023-08-06T12:19:59;2.45;;;0.80;;
32347;SDS011;18821;44.800;10.326;2023-08-06T12:22:26;1.05;;;0.52;;
32347;SDS011;18821;44.800;10.326;2023-08-06T12:24:52;2.60;;;0.85;;
32347;SDS011;18821;44.800;10.326;2023-08-06T12:27:18;0.90;;;0.65;;
32347;SDS011;18821;44.800;10.326;2023-08-06T12:29:45;1.90;;;0.80;;
32347;SDS011;18821;44.800;10.326;2023-08-06T12:32:12;1.60;;;0.85;;
32347;SDS011;18821;44.800;10.326;2023-08-06T12:34:39;1.88;;;0.90;;
32347;SDS011;18821;44.800;10.326;2023-08-06T12:37:06;1.30;;;0.73;;
32347;SDS011;18821;44.800;10.326;2023-08-06T12:39:33;1.30;;;0.80;;
32347;SDS011;18821;44.800;10.326;2023-08-06T12:42:03;1.23;;;0.77;;
32347;SDS011;18821;44.800;10.326;2023-08-06T12:44:30;1.10;;;0.75;;
32347;SDS011;18821;44.800;10.326;2023-08-06T12:46:57;0.63;;;0.45;;
32347;SDS011;18821;44.800;10.326;2023-08-06T12:49:24;1.20;;;0.70;;
32347;SDS011;18821;44.800;10.326;2023-08-06T12:51:52;1.77;;;0.88;;
32347;SDS011;18821;44.800;10.326;2023-08-06T12:54:18;1.33;;;0.80;;
32347;SDS011;18821;44.800;10.326;2023-08-06T12:56:46;0.80;;;0.70;;
32347;SDS011;18821;44.800;10.326;2023-08-06T12:59:13;1.42;;;0.70;;
32347;SDS011;18821;44.800;10.326;2023-08-06T13:01:40;1.08;;;0.50;;
32347;SDS011;18821;44.800;10.326;2023-08-06T13:04:07;0.65;;;0.50;;
32347;SDS011;18821;44.800;10.326;2023-08-06T13:06:33;1.40;;;0.70;;
32347;SDS011;18821;44.800;10.326;2023-08-06T13:09:02;3.55;;;0.68;;
32347;SDS011;18821;44.800;10.326;2023-08-06T13:11:30;3.88;;;1.13;;
32347;SDS011;18821;44.800;10.326;2023-08-06T13:13:59;1.00;;;0.63;;
32347;SDS011;18821;44.800;10.326;2023-08-06T13:16:33;1.48;;;0.73;;
32347;SDS011;18821;44.800;10.326;2023-08-06T13:18:59;0.73;;;0.60;;
32347;SDS011;18821;44.800;10.326;2023-08-06T13:21:31;0.95;;;0.73;;
32347;SDS011;18821;44.800;10.326;2023-08-06T13:23:59;1.40;;;0.70;;
32347;SDS011;18821;44.800;10.326;2023-08-06T13:26:27;0.63;;;0.50;;
32347;SDS011;18821;44.800;10.326;2023-08-06T13:28:59;1.63;;;0.38;;
32347;SDS011;18821;44.800;10.326;2023-08-06T13:31:26;1.52;;;0.70;;
32347;SDS011;18821;44.800;10.326;2023-08-06T13:33:53;1.50;;;1.15;;
32347;SDS011;18821;44.800;10.326;2023-08-06T13:36:21;4.82;;;0.70;;
32347;SDS011;18821;44.800;10.326;2023-08-06T13:38:48;1.45;;;1.25;;
32347;SDS011;18821;44.800;10.326;2023-08-06T13:41:14;1.27;;;0.75;;
32347;SDS011;18821;44.800;10.326;2023-08-06T13:43:40;1.10;;;0.90;;
32347;SDS011;18821;44.800;10.326;2023-08-06T13:46:06;1.73;;;0.70;;
32347;SDS011;18821;44.800;10.326;2023-08-06T13:48:32;1.80;;;0.70;;
32347;SDS011;18821;44.800;10.326;2023-08-06T13:50:58;1.73;;;0.60;;
32347;SDS011;18821;44.800;10.326;2023-08-06T13:53:24;0.90;;;0.68;;
32347;SDS011;18821;44.800;10.326;2023-08-06T13:55:55;0.90;;;0.60;;
32347;SDS011;18821;44.800;10.326;2023-08-06T13:58:22;3.50;;;0.88;;
32347;SDS011;18821;44.800;10.326;2023-08-06T14:00:48;0.85;;;0.80;;
32347;SDS011;18821;44.800;10.326;2023-08-06T14:03:18;1.63;;;0.80;;
32347;SDS011;18821;44.800;10.326;2023-08-06T14:05:44;1.92;;;0.65;;
32347;SDS011;18821;44.800;10.326;2023-08-06T14:08:10;4.47;;;0.73;;
32347;SDS011;18821;44.800;10.326;2023-08-06T14:10:37;0.80;;;0.73;;
32347;SDS011;18821;44.800;10.326;2023-08-06T14:13:03;1.50;;;0.93;;
32347;SDS011;18821;44.800;10.326;2023-08-06T14:15:29;3.92;;;0.80;;
32347;SDS011;18821;44.800;10.326;2023-08-06T14:17:55;1.35;;;0.77;;
32347;SDS011;18821;44.800;10.326;2023-08-06T14:20:21;0.95;;;0.70;;
32347;SDS011;18821;44.800;10.326;2023-08-06T14:22:48;1.98;;;0.52;;
32347;SDS011;18821;44.800;10.326;2023-08-06T14:25:14;2.58;;;0.93;;
32347;SDS011;18821;44.800;10.326;2023-08-06T14:27:40;1.25;;;0.70;;
32347;SDS011;18821;44.800;10.326;2023-08-06T14:30:07;1.02;;;0.60;;
32347;SDS011;18821;44.800;10.326;2023-08-06T14:32:33;2.13;;;0.65;;
32347;SDS011;18821;44.800;10.326;2023-08-06T14:35:00;0.90;;;0.70;;
32347;SDS011;18821;44.800;10.326;2023-08-06T14:37:26;0.70;;;0.65;;
32347;SDS011;18821;44.800;10.326;2023-08-06T14:39:52;3.30;;;1.50;;
32347;SDS011;18821;44.800;10.326;2023-08-06T14:42:19;1.33;;;0.75;;
32347;SDS011;18821;44.800;10.326;2023-08-06T14:44:45;2.00;;;0.82;;
32347;SDS011;18821;44.800;10.326;2023-08-06T14:47:11;0.60;;;0.50;;
32347;SDS011;18821;44.800;10.326;2023-08-06T14:49:37;0.50;;;0.43;;
32347;SDS011;18821;44.800;10.326;2023-08-06T14:52:04;1.02;;;0.60;;
32347;SDS011;18821;44.800;10.326;2023-08-06T14:54:30;2.83;;;0.90;;
32347;SDS011;18821;44.800;10.326;2023-08-06T14:56:56;0.98;;;0.65;;
32347;SDS011;18821;44.800;10.326;2023-08-06T14:59:23;1.02;;;0.60;;